sensor_id;sensor_type;location;lat;lon;timestamp;temperature;humidity
61339;DHT22;47213;52.362;4.606;2022-08-14T00:01:28;25.90;53.20
61339;DHT22;47213;52.362;4.606;2022-08-14T00:11:27;25.80;53.50
61339;DHT22;47213;52.362;4.606;2022-08-14T00:21:27;25.70;53.80
61339;DHT22;47213;52.362;4.606;2022-08-14T00:26:27;25.80;53.90
61339;DHT22;47213;52.362;4.606;2022-08-14T00:31:27;25.70;54.60
61339;DHT22;47213;52.362;4.606;2022-08-14T00:41:29;25.50;55.60
61339;DHT22;47213;52.362;4.606;2022-08-14T00:51:27;25.40;56.60
61339;DHT22;47213;52.362;4.606;2022-08-14T00:56:27;25.30;56.60
61339;DHT22;47213;52.362;4.606;2022-08-14T01:01:27;25.20;58.30
61339;DHT22;47213;52.362;4.606;2022-08-14T01:06:27;25.30;58.10
61339;DHT22;47213;52.362;4.606;2022-08-14T01:11:27;25.20;58.40
61339;DHT22;47213;52.362;4.606;2022-08-14T01:16:27;25.10;58.50
61339;DHT22;47213;52.362;4.606;2022-08-14T01:31:29;25.00;59.00
61339;DHT22;47213;52.362;4.606;2022-08-14T01:41:28;24.90;59.80
61339;DHT22;47213;52.362;4.606;2022-08-14T01:46:29;24.80;60.20
61339;DHT22;47213;52.362;4.606;2022-08-14T01:51:27;24.70;60.20
61339;DHT22;47213;52.362;4.606;2022-08-14T02:01:27;24.60;61.20
61339;DHT22;47213;52.362;4.606;2022-08-14T02:11:28;24.50;61.50
61339;DHT22;47213;52.362;4.606;2022-08-14T02:21:28;24.30;61.60
61339;DHT22;47213;52.362;4.606;2022-08-14T02:26:29;24.20;64.40
61339;DHT22;47213;52.362;4.606;2022-08-14T02:31:28;24.10;64.20
61339;DHT22;47213;52.362;4.606;2022-08-14T02:36:28;24.20;63.10
61339;DHT22;47213;52.362;4.606;2022-08-14T02:41:28;24.10;63.20
61339;DHT22;47213;52.362;4.606;2022-08-14T02:46:28;24.20;63.20
61339;DHT22;47213;52.362;4.606;2022-08-14T02:51:28;24.10;62.90
61339;DHT22;47213;52.362;4.606;2022-08-14T02:56:28;24.20;62.80
61339;DHT22;47213;52.362;4.606;2022-08-14T03:01:28;24.10;62.70
61339;DHT22;47213;52.362;4.606;2022-08-14T03:11:28;23.90;63.60
61339;DHT22;47213;52.362;4.606;2022-08-14T03:16:28;24.00;63.00
61339;DHT22;47213;52.362;4.606;2022-08-14T03:31:28;23.90;63.20
61339;DHT22;47213;52.362;4.606;2022-08-14T03:41:28;23.80;62.80
61339;DHT22;47213;52.362;4.606;2022-08-14T03:46:29;23.90;62.60
61339;DHT22;47213;52.362;4.606;2022-08-14T04:01:28;23.80;62.90
61339;DHT22;47213;52.362;4.606;2022-08-14T04:11:28;23.70;63.10
61339;DHT22;47213;52.362;4.606;2022-08-14T04:21:28;23.60;63.80
61339;DHT22;47213;52.362;4.606;2022-08-14T04:26:29;23.50;63.60
61339;DHT22;47213;52.362;4.606;2022-08-14T04:31:28;23.30;63.60
61339;DHT22;47213;52.362;4.606;2022-08-14T04:41:28;23.20;64.20
61339;DHT22;47213;52.362;4.606;2022-08-14T04:51:28;23.00;66.30
61339;DHT22;47213;52.362;4.606;2022-08-14T04:56:28;23.10;66.30
61339;DHT22;47213;52.362;4.606;2022-08-14T05:06:28;23.20;65.10
61339;DHT22;47213;52.362;4.606;2022-08-14T05:16:28;23.30;64.80
61339;DHT22;47213;52.362;4.606;2022-08-14T05:21:28;23.20;63.90
61339;DHT22;47213;52.362;4.606;2022-08-14T05:26:28;23.40;61.50
61339;DHT22;47213;52.362;4.606;2022-08-14T05:31:28;23.50;61.30
61339;DHT22;47213;52.362;4.606;2022-08-14T05:46:28;23.60;58.60
61339;DHT22;47213;52.362;4.606;2022-08-14T06:01:28;23.70;56.90
61339;DHT22;47213;52.362;4.606;2022-08-14T06:06:28;23.80;56.40
61339;DHT22;47213;52.362;4.606;2022-08-14T06:11:28;23.90;56.40
61339;DHT22;47213;52.362;4.606;2022-08-14T06:16:28;24.00;55.50
61339;DHT22;47213;52.362;4.606;2022-08-14T06:26:28;23.90;55.80
61339;DHT22;47213;52.362;4.606;2022-08-14T06:36:28;24.10;55.70
61339;DHT22;47213;52.362;4.606;2022-08-14T06:41:28;24.00;55.90
61339;DHT22;47213;52.362;4.606;2022-08-14T06:51:28;24.10;56.30
61339;DHT22;47213;52.362;4.606;2022-08-14T06:56:28;24.20;55.90
61339;DHT22;47213;52.362;4.606;2022-08-14T07:06:28;24.40;55.20
61339;DHT22;47213;52.362;4.606;2022-08-14T07:16:29;24.50;54.80
61339;DHT22;47213;52.362;4.606;2022-08-14T07:26:28;24.60;54.30
61339;DHT22;47213;52.362;4.606;2022-08-14T07:36:28;24.80;54.20
61339;DHT22;47213;52.362;4.606;2022-08-14T07:41:28;25.00;54.20
61339;DHT22;47213;52.362;4.606;2022-08-14T07:46:28;25.20;53.10
61339;DHT22;47213;52.362;4.606;2022-08-14T07:51:29;25.10;51.60
61339;DHT22;47213;52.362;4.606;2022-08-14T07:56:28;25.30;52.00
61339;DHT22;47213;52.362;4.606;2022-08-14T08:01:28;25.50;51.40
61339;DHT22;47213;52.362;4.606;2022-08-14T08:06:28;25.60;51.40
61339;DHT22;47213;52.362;4.606;2022-08-14T08:11:33;25.70;50.90
61339;DHT22;47213;52.362;4.606;2022-08-14T08:16:29;25.80;50.10
61339;DHT22;47213;52.362;4.606;2022-08-14T08:21:29;25.90;50.50
61339;DHT22;47213;52.362;4.606;2022-08-14T08:26:29;26.00;50.60
61339;DHT22;47213;52.362;4.606;2022-08-14T08:31:29;26.20;50.60
61339;DHT22;47213;52.362;4.606;2022-08-14T08:36:38;26.40;49.40
61339;DHT22;47213;52.362;4.606;2022-08-14T08:41:37;26.50;49.40
61339;DHT22;47213;52.362;4.606;2022-08-14T08:46:29;26.60;48.80
61339;DHT22;47213;52.362;4.606;2022-08-14T08:51:30;26.70;48.30
61339;DHT22;47213;52.362;4.606;2022-08-14T09:01:29;27.10;46.80
61339;DHT22;47213;52.362;4.606;2022-08-14T09:06:29;27.30;46.80
61339;DHT22;47213;52.362;4.606;2022-08-14T09:11:29;27.40;46.00
61339;DHT22;47213;52.362;4.606;2022-08-14T09:16:29;27.60;45.10
61339;DHT22;47213;52.362;4.606;2022-08-14T09:21:29;27.70;44.50
61339;DHT22;47213;52.362;4.606;2022-08-14T09:26:29;27.90;44.50
61339;DHT22;47213;52.362;4.606;2022-08-14T09:31:29;28.10;44.90
61339;DHT22;47213;52.362;4.606;2022-08-14T09:46:29;28.60;42.50
61339;DHT22;47213;52.362;4.606;2022-08-14T09:51:30;28.90;41.10
61339;DHT22;47213;52.362;4.606;2022-08-14T09:56:29;29.10;41.10
61339;DHT22;47213;52.362;4.606;2022-08-14T10:01:34;29.40;40.10
61339;DHT22;47213;52.362;4.606;2022-08-14T10:06:29;29.60;40.10
61339;DHT22;47213;52.362;4.606;2022-08-14T10:11:30;30.20;38.10
61339;DHT22;47213;52.362;4.606;2022-08-14T10:16:39;32.10;38.10
61339;DHT22;47213;52.362;4.606;2022-08-14T10:21:29;35.40;35.20
61339;DHT22;47213;52.362;4.606;2022-08-14T10:26:29;39.10;26.50
61339;DHT22;47213;52.362;4.606;2022-08-14T10:31:30;42.20;22.70
61339;DHT22;47213;52.362;4.606;2022-08-14T10:36:30;44.30;22.70
61339;DHT22;47213;52.362;4.606;2022-08-14T10:41:34;44.20;18.70
61339;DHT22;47213;52.362;4.606;2022-08-14T10:46:37;45.90;18.00
61339;DHT22;47213;52.362;4.606;2022-08-14T10:51:29;47.60;18.00
61339;DHT22;47213;52.362;4.606;2022-08-14T10:56:30;48.60;16.40
61339;DHT22;47213;52.362;4.606;2022-08-14T11:01:30;49.40;15.40
61339;DHT22;47213;52.362;4.606;2022-08-14T11:06:29;49.80;14.10
61339;DHT22;47213;52.362;4.606;2022-08-14T11:11:29;50.10;14.10
61339;DHT22;47213;52.362;4.606;2022-08-14T11:16:29;49.70;13.80
61339;DHT22;47213;52.362;4.606;2022-08-14T11:21:29;51.00;13.00
61339;DHT22;47213;52.362;4.606;2022-08-14T11:26:29;50.80;11.80
61339;DHT22;47213;52.362;4.606;2022-08-14T11:31:29;49.50;11.80
61339;DHT22;47213;52.362;4.606;2022-08-14T11:36:29;49.30;12.40
61339;DHT22;47213;52.362;4.606;2022-08-14T11:41:29;49.60;12.20
61339;DHT22;47213;52.362;4.606;2022-08-14T11:46:29;50.50;12.20
61339;DHT22;47213;52.362;4.606;2022-08-14T11:51:29;50.80;11.40
61339;DHT22;47213;52.362;4.606;2022-08-14T11:56:33;51.20;11.70
61339;DHT22;47213;52.362;4.606;2022-08-14T12:01:29;47.70;12.30
61339;DHT22;47213;52.362;4.606;2022-08-14T12:06:29;44.60;15.20
61339;DHT22;47213;52.362;4.606;2022-08-14T12:11:37;43.00;15.30
61339;DHT22;47213;52.362;4.606;2022-08-14T12:16:29;40.80;17.30
61339;DHT22;47213;52.362;4.606;2022-08-14T12:21:29;39.90;18.80
61339;DHT22;47213;52.362;4.606;2022-08-14T12:26:29;39.70;18.80
61339;DHT22;47213;52.362;4.606;2022-08-14T12:31:29;39.50;19.60
61339;DHT22;47213;52.362;4.606;2022-08-14T12:36:29;38.70;19.60
61339;DHT22;47213;52.362;4.606;2022-08-14T12:41:30;37.50;19.00
61339;DHT22;47213;52.362;4.606;2022-08-14T12:46:30;36.90;19.90
61339;DHT22;47213;52.362;4.606;2022-08-14T12:51:29;36.20;20.80
61339;DHT22;47213;52.362;4.606;2022-08-14T12:56:29;35.70;21.10
61339;DHT22;47213;52.362;4.606;2022-08-14T13:01:30;35.90;21.10
61339;DHT22;47213;52.362;4.606;2022-08-14T13:11:35;36.30;20.30
61339;DHT22;47213;52.362;4.606;2022-08-14T13:16:29;36.70;19.50
61339;DHT22;47213;52.362;4.606;2022-08-14T13:21:30;36.40;20.40
61339;DHT22;47213;52.362;4.606;2022-08-14T13:26:29;35.90;20.50
61339;DHT22;47213;52.362;4.606;2022-08-14T13:31:29;35.30;21.40
61339;DHT22;47213;52.362;4.606;2022-08-14T13:36:29;35.10;22.20
61339;DHT22;47213;52.362;4.606;2022-08-14T13:41:29;35.30;22.40
61339;DHT22;47213;52.362;4.606;2022-08-14T13:46:29;34.90;22.50
61339;DHT22;47213;52.362;4.606;2022-08-14T13:51:30;34.60;22.50
61339;DHT22;47213;52.362;4.606;2022-08-14T13:56:30;34.70;23.70
61339;DHT22;47213;52.362;4.606;2022-08-14T14:01:29;35.00;23.10
61339;DHT22;47213;52.362;4.606;2022-08-14T14:06:30;35.30;23.10
61339;DHT22;47213;52.362;4.606;2022-08-14T14:11:30;35.60;22.50
61339;DHT22;47213;52.362;4.606;2022-08-14T14:16:30;35.00;22.30
61339;DHT22;47213;52.362;4.606;2022-08-14T14:21:30;34.40;23.30
61339;DHT22;47213;52.362;4.606;2022-08-14T14:31:30;34.70;22.70
61339;DHT22;47213;52.362;4.606;2022-08-14T14:36:30;34.50;22.90
61339;DHT22;47213;52.362;4.606;2022-08-14T14:41:31;34.90;23.40
61339;DHT22;47213;52.362;4.606;2022-08-14T14:46:30;35.50;22.60
61339;DHT22;47213;52.362;4.606;2022-08-14T14:56:30;35.20;21.60
61339;DHT22;47213;52.362;4.606;2022-08-14T15:01:30;35.40;21.90
61339;DHT22;47213;52.362;4.606;2022-08-14T15:06:30;35.60;21.90
61339;DHT22;47213;52.362;4.606;2022-08-14T15:16:30;35.50;21.70
61339;DHT22;47213;52.362;4.606;2022-08-14T15:31:30;35.90;22.60
61339;DHT22;47213;52.362;4.606;2022-08-14T15:36:30;35.80;22.20
61339;DHT22;47213;52.362;4.606;2022-08-14T15:41:30;35.90;23.10
61339;DHT22;47213;52.362;4.606;2022-08-14T15:46:30;35.30;23.40
61339;DHT22;47213;52.362;4.606;2022-08-14T15:51:30;34.90;23.80
61339;DHT22;47213;52.362;4.606;2022-08-14T16:06:30;35.00;25.70
61339;DHT22;47213;52.362;4.606;2022-08-14T16:11:30;35.20;25.40
61339;DHT22;47213;52.362;4.606;2022-08-14T16:16:30;35.00;25.40
61339;DHT22;47213;52.362;4.606;2022-08-14T16:21:30;34.70;26.20
61339;DHT22;47213;52.362;4.606;2022-08-14T16:31:30;34.90;26.50
61339;DHT22;47213;52.362;4.606;2022-08-14T16:36:30;34.80;26.50
61339;DHT22;47213;52.362;4.606;2022-08-14T16:46:31;34.70;26.20
61339;DHT22;47213;52.362;4.606;2022-08-14T16:51:30;34.60;26.90
61339;DHT22;47213;52.362;4.606;2022-08-14T16:56:30;34.40;26.90
61339;DHT22;47213;52.362;4.606;2022-08-14T17:06:39;34.10;27.60
61339;DHT22;47213;52.362;4.606;2022-08-14T17:11:30;34.20;27.60
61339;DHT22;47213;52.362;4.606;2022-08-14T17:16:32;34.10;27.80
61339;DHT22;47213;52.362;4.606;2022-08-14T17:36:30;33.70;27.80
61339;DHT22;47213;52.362;4.606;2022-08-14T17:36:48;unavailable;unavailable
61339;DHT22;47213;52.362;4.606;2022-08-14T17:36:53;33.70;27.90
61339;DHT22;47213;52.362;4.606;2022-08-14T17:46:32;33.50;27.80
61339;DHT22;47213;52.362;4.606;2022-08-14T17:56:31;33.30;27.80
61339;DHT22;47213;52.362;4.606;2022-08-14T18:01:32;33.20;28.10
61339;DHT22;47213;52.362;4.606;2022-08-14T18:06:30;33.10;28.30
61339;DHT22;47213;52.362;4.606;2022-08-14T18:11:30;33.00;28.30
61339;DHT22;47213;52.362;4.606;2022-08-14T18:16:30;32.90;28.30
61339;DHT22;47213;52.362;4.606;2022-08-14T18:26:30;32.70;28.60
61339;DHT22;47213;52.362;4.606;2022-08-14T18:32:58;unavailable;unavailable
61339;DHT22;47213;52.362;4.606;2022-08-14T18:33:21;32.70;28.30
61339;DHT22;47213;52.362;4.606;2022-08-14T18:36:47;32.50;28.30
61339;DHT22;47213;52.362;4.606;2022-08-14T18:46:32;32.40;28.90
61339;DHT22;47213;52.362;4.606;2022-08-14T18:57:04;32.30;28.80
61339;DHT22;47213;52.362;4.606;2022-08-14T19:06:35;32.00;30.30
61339;DHT22;47213;52.362;4.606;2022-08-14T19:16:31;31.80;30.70
61339;DHT22;47213;52.362;4.606;2022-08-14T19:21:32;31.70;31.40
61339;DHT22;47213;52.362;4.606;2022-08-14T19:26:30;31.50;32.50
61339;DHT22;47213;52.362;4.606;2022-08-14T19:36:48;31.30;33.60
61339;DHT22;47213;52.362;4.606;2022-08-14T19:46:30;31.20;35.30
61339;DHT22;47213;52.362;4.606;2022-08-14T19:56:39;31.00;35.80
61339;DHT22;47213;52.362;4.606;2022-08-14T20:16:31;30.90;36.80
61339;DHT22;47213;52.362;4.606;2022-08-14T20:21:31;30.80;37.20
61339;DHT22;47213;52.362;4.606;2022-08-14T20:26:31;30.70;37.60
61339;DHT22;47213;52.362;4.606;2022-08-14T20:31:31;30.80;37.60
61339;DHT22;47213;52.362;4.606;2022-08-14T20:36:31;30.70;37.60
61339;DHT22;47213;52.362;4.606;2022-08-14T20:41:31;30.60;38.10
61339;DHT22;47213;52.362;4.606;2022-08-14T20:46:31;30.50;38.10
61339;DHT22;47213;52.362;4.606;2022-08-14T20:56:32;30.40;39.50
61339;DHT22;47213;52.362;4.606;2022-08-14T21:06:32;30.30;39.80
61339;DHT22;47213;52.362;4.606;2022-08-14T21:16:31;30.20;40.60
61339;DHT22;47213;52.362;4.606;2022-08-14T21:21:31;30.30;40.70
61339;DHT22;47213;52.362;4.606;2022-08-14T21:26:31;30.20;41.20
61339;DHT22;47213;52.362;4.606;2022-08-14T21:31:31;30.00;41.60
61339;DHT22;47213;52.362;4.606;2022-08-14T21:36:31;29.90;41.60
61339;DHT22;47213;52.362;4.606;2022-08-14T21:41:31;29.80;42.30
61339;DHT22;47213;52.362;4.606;2022-08-14T21:46:32;29.70;42.90
61339;DHT22;47213;52.362;4.606;2022-08-14T21:51:31;29.80;42.90
61339;DHT22;47213;52.362;4.606;2022-08-14T21:56:33;29.70;43.30
61339;DHT22;47213;52.362;4.606;2022-08-14T22:06:31;29.60;43.90
61339;DHT22;47213;52.362;4.606;2022-08-14T22:11:31;29.50;44.40
61339;DHT22;47213;52.362;4.606;2022-08-14T22:16:31;29.40;44.40
61339;DHT22;47213;52.362;4.606;2022-08-14T22:21:31;29.30;44.80
61339;DHT22;47213;52.362;4.606;2022-08-14T22:26:31;29.10;45.10
61339;DHT22;47213;52.362;4.606;2022-08-14T22:36:31;29.00;46.10
61339;DHT22;47213;52.362;4.606;2022-08-14T22:41:31;29.10;46.10
61339;DHT22;47213;52.362;4.606;2022-08-14T22:46:31;28.80;47.50
61339;DHT22;47213;52.362;4.606;2022-08-14T22:56:31;28.70;48.20
61339;DHT22;47213;52.362;4.606;2022-08-14T23:06:31;28.50;48.80
61339;DHT22;47213;52.362;4.606;2022-08-14T23:11:31;28.40;49.80
61339;DHT22;47213;52.362;4.606;2022-08-14T23:16:32;28.30;49.80
61339;DHT22;47213;52.362;4.606;2022-08-14T23:26:31;28.20;50.90
61339;DHT22;47213;52.362;4.606;2022-08-14T23:31:31;28.10;50.90
61339;DHT22;47213;52.362;4.606;2022-08-14T23:36:31;28.00;51.50
61339;DHT22;47213;52.362;4.606;2022-08-14T23:41:31;27.90;52.30
61339;DHT22;47213;52.362;4.606;2022-08-14T23:56:31;27.80;52.50
